createdAt,value
2023-04-06T00:01:40.619Z,0.30
2023-04-06T00:06:43.204Z,0.10
2023-04-06T00:11:45.554Z,0.10
2023-04-06T00:16:47.852Z,0.10
2023-04-06T00:21:50.299Z,0.00
2023-04-06T00:26:52.625Z,-0.10
2023-04-06T00:31:54.887Z,-0.20
2023-04-06T00:36:57.324Z,-0.30
2023-04-06T00:42:00.622Z,-0.30
2023-04-06T00:47:03.013Z,-0.30
2023-04-06T00:52:05.979Z,-0.50
2023-04-06T00:57:08.626Z,-0.50
2023-04-06T01:02:11.131Z,-0.40
2023-04-06T01:07:21.685Z,-0.50
2023-04-06T01:12:39.775Z,-0.50
2023-04-06T01:17:48.445Z,-0.70
2023-04-06T01:22:52.616Z,-0.80
2023-04-06T01:27:56.103Z,-0.80
2023-04-06T01:33:04.193Z,-0.80
2023-04-06T01:38:32.801Z,-0.60
2023-04-06T01:43:35.876Z,-0.80
2023-04-06T01:48:42.259Z,-0.80
2023-04-06T01:53:52.818Z,-0.90
2023-04-06T01:58:58.652Z,-1.10
2023-04-06T02:04:04.634Z,-1.20
2023-04-06T02:09:07.289Z,-1.10
2023-04-06T02:14:09.834Z,-1.20
2023-04-06T02:19:17.991Z,-1.20
2023-04-06T02:24:20.529Z,-1.20
2023-04-06T02:29:22.850Z,-1.30
2023-04-06T02:34:26.143Z,-1.30
2023-04-06T02:39:28.520Z,-1.40
2023-04-06T02:44:32.090Z,-1.30
2023-04-06T02:49:34.402Z,-1.00
2023-04-06T02:54:37.106Z,-1.20
2023-04-06T02:59:40.487Z,-1.20
2023-04-06T03:04:54.709Z,-1.20
2023-04-06T03:10:03.035Z,-1.20
2023-04-06T03:15:07.791Z,-1.40
2023-04-06T03:20:11.845Z,-1.50
2023-04-06T03:25:14.268Z,-1.40
2023-04-06T03:30:19.568Z,-1.30
2023-04-06T03:35:22.054Z,-1.50
2023-04-06T03:40:24.436Z,-1.50
2023-04-06T03:45:27.322Z,-1.70
2023-04-06T03:50:29.640Z,-1.60
2023-04-06T03:55:32.003Z,-1.60
2023-04-06T04:00:34.352Z,-1.70
2023-04-06T04:05:36.850Z,-1.80
2023-04-06T04:10:39.246Z,-1.60
2023-04-06T04:15:41.497Z,-1.80
2023-04-06T04:20:45.288Z,-1.80
2023-04-06T04:25:49.361Z,-1.90
2023-04-06T04:30:51.630Z,-2.00
2023-04-06T04:35:54.080Z,-1.90
2023-04-06T04:41:00.104Z,-1.90
2023-04-06T04:46:02.651Z,-1.80
2023-04-06T04:51:15.075Z,-1.80
2023-04-06T04:56:28.643Z,-1.70
2023-04-06T05:01:47.694Z,-1.80
2023-04-06T05:07:08.284Z,-1.70
2023-04-06T05:12:12.707Z,-1.60
2023-04-06T05:17:26.612Z,-1.10
2023-04-06T05:22:29.079Z,-0.90
2023-04-06T05:27:38.588Z,-0.50
2023-04-06T05:32:47.252Z,-0.30
2023-04-06T05:37:50.820Z,0.00
2023-04-06T05:42:56.687Z,0.10
2023-04-06T05:47:59.487Z,0.30
2023-04-06T05:53:05.370Z,0.50
2023-04-06T05:58:14.895Z,0.80
2023-04-06T06:03:18.037Z,1.00
2023-04-06T06:08:26.643Z,1.10
2023-04-06T06:13:29.298Z,1.50
2023-04-06T06:18:32.864Z,1.80
2023-04-06T06:23:35.554Z,1.90
2023-04-06T06:28:38.363Z,2.10
2023-04-06T06:33:40.952Z,2.20
2023-04-06T06:38:45.749Z,2.40
2023-04-06T06:43:48.845Z,2.60
2023-04-06T06:48:51.676Z,2.70
2023-04-06T06:53:54.037Z,2.80
2023-04-06T06:58:56.334Z,2.90
2023-04-06T07:03:58.881Z,3.10
2023-04-06T07:09:01.738Z,3.30
2023-04-06T07:14:04.176Z,3.50
2023-04-06T07:19:06.643Z,3.70
2023-04-06T07:24:09.355Z,3.80
2023-04-06T07:29:13.701Z,4.00
2023-04-06T07:34:16.602Z,4.10
2023-04-06T07:39:20.001Z,4.30
2023-04-06T07:44:23.081Z,4.40
2023-04-06T07:49:26.088Z,4.50
2023-04-06T07:54:28.909Z,4.70
2023-04-06T07:59:31.175Z,4.70
2023-04-06T08:04:33.529Z,4.70
2023-04-06T08:09:36.107Z,4.70
2023-04-06T08:14:38.554Z,4.90
2023-04-06T08:19:42.970Z,4.90
2023-04-06T08:24:45.175Z,5.10
2023-04-06T08:29:48.358Z,5.20
2023-04-06T08:34:53.784Z,5.50
2023-04-06T08:39:56.130Z,5.70
2023-04-06T08:44:58.829Z,5.80
2023-04-06T08:50:09.244Z,6.10
2023-04-06T08:55:11.520Z,6.20
2023-04-06T09:00:14.980Z,6.10
2023-04-06T09:05:17.647Z,6.30
2023-04-06T09:10:19.958Z,6.40
2023-04-06T09:15:24.592Z,6.60
2023-04-06T09:20:29.112Z,6.80
2023-04-06T09:25:32.821Z,7.30
2023-04-06T09:30:36.955Z,7.50
2023-04-06T09:35:39.530Z,7.50
2023-04-06T09:41:00.726Z,7.70
2023-04-06T09:46:05.763Z,7.80
2023-04-06T09:51:11.188Z,8.10
2023-04-06T09:56:19.133Z,8.50
2023-04-06T10:01:24.615Z,8.40
2023-04-06T10:06:29.519Z,8.80
2023-04-06T10:11:32.302Z,9.00
2023-04-06T10:16:35.972Z,8.90
2023-04-06T10:21:41.215Z,9.30
2023-04-06T10:26:43.844Z,9.90
2023-04-06T10:31:46.373Z,10.30
2023-04-06T10:36:49.090Z,10.20
2023-04-06T10:41:51.512Z,10.70
2023-04-06T10:46:58.275Z,10.80
2023-04-06T10:52:03.036Z,11.10
2023-04-06T10:57:05.481Z,11.30
2023-04-06T11:02:07.836Z,12.00
2023-04-06T11:07:10.890Z,12.20
2023-04-06T11:12:26.136Z,12.60
2023-04-06T11:17:29.535Z,12.80
2023-04-06T11:22:32.527Z,12.80
2023-04-06T11:27:37.972Z,13.20
2023-04-06T11:32:47.010Z,13.50
2023-04-06T11:37:50.991Z,14.00
2023-04-06T11:42:54.877Z,13.90
2023-04-06T11:48:00.590Z,13.90
2023-04-06T11:53:04.773Z,13.90
2023-04-06T11:58:08.177Z,13.80
2023-04-06T12:03:10.625Z,14.10
2023-04-06T12:08:13.079Z,14.70
2023-04-06T12:13:15.536Z,15.10
2023-04-06T12:18:17.885Z,15.30
2023-04-06T12:23:21.121Z,15.70
2023-04-06T12:28:27.788Z,16.20
2023-04-06T12:33:31.244Z,15.60
2023-04-06T12:38:33.673Z,15.50
2023-04-06T12:43:36.099Z,15.70
2023-04-06T12:48:38.627Z,16.40
2023-04-06T12:53:41.160Z,17.00
2023-04-06T12:58:43.611Z,17.50
2023-04-06T13:03:46.561Z,17.90
2023-04-06T13:09:14.226Z,18.30
2023-04-06T13:14:17.190Z,18.80
2023-04-06T13:19:19.572Z,19.30
2023-04-06T13:24:22.820Z,19.70
2023-04-06T13:29:25.089Z,20.20
2023-04-06T13:34:27.373Z,20.10
2023-04-06T13:39:30.178Z,20.40
2023-04-06T13:44:32.679Z,20.60
2023-04-06T13:49:34.932Z,20.90
2023-04-06T13:54:37.833Z,21.00
2023-04-06T13:59:40.639Z,21.10
2023-04-06T14:10:15.289Z,20.90
2023-04-06T14:15:17.680Z,22.10
2023-04-06T14:20:20.243Z,22.60
2023-04-06T14:25:22.648Z,23.10
2023-04-06T14:30:24.906Z,23.10
2023-04-06T14:35:29.259Z,23.60
2023-04-06T14:40:35.409Z,23.80
2023-04-06T14:45:39.930Z,24.10
2023-04-06T14:50:42.338Z,24.00
2023-04-06T14:55:45.599Z,23.90
2023-04-06T15:00:48.233Z,23.50
2023-04-06T15:05:50.470Z,23.70
2023-04-06T15:10:53.287Z,23.30
2023-04-06T15:15:55.703Z,23.40
2023-04-06T15:20:58.093Z,23.80
2023-04-06T15:26:00.483Z,23.40
2023-04-06T15:31:06.920Z,23.20
2023-04-06T15:36:24.524Z,23.00
2023-04-06T15:41:27.127Z,22.00
2023-04-06T15:46:29.475Z,21.10
2023-04-06T15:51:31.788Z,21.20
2023-04-06T15:56:34.769Z,20.90
2023-04-06T16:01:37.266Z,20.90
2023-04-06T16:06:39.624Z,20.20
2023-04-06T16:11:42.038Z,20.10
2023-04-06T16:16:44.513Z,19.80
2023-04-06T16:21:47.614Z,19.90
2023-04-06T16:26:50.823Z,19.70
2023-04-06T16:31:53.806Z,19.10
2023-04-06T16:36:57.441Z,18.60
2023-04-06T16:42:01.687Z,18.30
2023-04-06T16:47:05.296Z,17.60
2023-04-06T16:52:07.669Z,16.30
2023-04-06T16:57:11.040Z,15.00
2023-04-06T17:02:14.245Z,14.30
2023-04-06T17:07:17.060Z,13.60
2023-04-06T17:12:19.501Z,13.00
2023-04-06T17:17:21.974Z,12.70
2023-04-06T17:22:24.434Z,12.40
2023-04-06T17:27:27.173Z,12.20
2023-04-06T17:32:29.883Z,11.70
2023-04-06T17:37:37.091Z,11.30
2023-04-06T17:42:39.448Z,11.10
2023-04-06T17:47:41.961Z,10.70
2023-04-06T17:57:51.233Z,10.10
2023-04-06T18:02:55.218Z,9.60
2023-04-06T18:08:04.632Z,9.40
2023-04-06T18:13:07.546Z,9.30
2023-04-06T18:18:10.066Z,8.90
2023-04-06T18:23:13.380Z,8.80
2023-04-06T18:28:17.935Z,8.70
2023-04-06T18:33:20.575Z,8.60
2023-04-06T18:38:24.949Z,8.20
2023-04-06T18:43:30.201Z,8.50
2023-04-06T18:48:33.737Z,8.60
2023-04-06T18:53:38.574Z,8.80
2023-04-06T18:58:43.559Z,8.80
2023-04-06T19:03:46.601Z,8.80
2023-04-06T19:08:50.011Z,8.90
2023-04-06T19:13:54.229Z,8.90
2023-04-06T19:18:57.228Z,9.00
2023-04-06T19:24:01.726Z,9.10
2023-04-06T19:29:04.334Z,9.10
2023-04-06T19:34:08.177Z,9.10
2023-04-06T19:39:11.053Z,9.10
2023-04-06T19:44:13.686Z,9.10
2023-04-06T19:49:18.729Z,9.00
2023-04-06T19:54:23.257Z,9.20
2023-04-06T19:59:26.770Z,9.20
2023-04-06T20:04:30.369Z,9.20
2023-04-06T20:09:33.551Z,9.10
2023-04-06T20:14:37.391Z,9.10
2023-04-06T20:19:40.316Z,9.10
2023-04-06T20:24:43.041Z,9.10
2023-04-06T20:29:46.186Z,9.10
2023-04-06T20:34:49.466Z,9.10
2023-04-06T20:39:52.251Z,9.10
2023-04-06T20:44:57.040Z,9.20
2023-04-06T20:50:01.190Z,8.80
2023-04-06T20:55:03.984Z,8.60
2023-04-06T21:00:08.693Z,8.50
2023-04-06T21:05:11.365Z,8.40
2023-04-06T21:10:13.895Z,8.40
2023-04-06T21:15:16.363Z,8.40
2023-04-06T21:20:18.746Z,8.40
2023-04-06T21:25:21.137Z,8.40
2023-04-06T21:30:23.700Z,8.30
2023-04-06T21:35:26.074Z,8.30
2023-04-06T21:40:28.543Z,8.20
2023-04-06T21:45:32.643Z,8.30
2023-04-06T21:50:39.955Z,8.10
2023-04-06T21:55:44.112Z,8.20
2023-04-06T22:00:46.889Z,8.10
2023-04-06T22:05:49.301Z,8.00
2023-04-06T22:10:51.694Z,8.00
2023-04-06T22:15:54.586Z,8.00
2023-04-06T22:20:57.195Z,7.80
2023-04-06T22:25:59.854Z,7.70
2023-04-06T22:31:02.272Z,7.80
2023-04-06T22:36:05.062Z,7.60
2023-04-06T22:41:08.587Z,7.60
2023-04-06T22:46:13.375Z,7.50
2023-04-06T22:51:16.004Z,7.40
2023-04-06T22:56:18.558Z,7.40
2023-04-06T23:01:21.216Z,7.40
2023-04-06T23:06:25.261Z,7.20
2023-04-06T23:11:27.721Z,7.10
2023-04-06T23:16:30.147Z,7.00
2023-04-06T23:21:33.347Z,6.90
2023-04-06T23:26:35.959Z,6.90
2023-04-06T23:31:38.365Z,6.80
2023-04-06T23:36:41.082Z,6.80
2023-04-06T23:41:43.542Z,6.70
2023-04-06T23:46:46.004Z,6.60
2023-04-06T23:51:48.478Z,6.60
2023-04-06T23:56:52.117Z,6.50
